createdAt,value
2019-03-12T00:00:23.717Z,1.10
2019-03-12T00:02:52.815Z,1.30
2019-03-12T00:05:21.850Z,1.40
2019-03-12T00:07:50.935Z,1.27
2019-03-12T00:10:19.889Z,1.40
2019-03-12T00:12:48.971Z,1.32
2019-03-12T00:15:18.094Z,1.30
2019-03-12T00:17:47.348Z,1.40
2019-03-12T00:20:16.358Z,1.35
2019-03-12T00:22:45.371Z,1.52
2019-03-12T00:25:14.329Z,1.12
2019-03-12T00:27:43.357Z,1.50
2019-03-12T00:30:12.550Z,1.50
2019-03-12T00:32:41.875Z,1.35
2019-03-12T00:35:11.054Z,1.25
2019-03-12T00:37:41.158Z,1.30
2019-03-12T00:40:10.427Z,1.20
2019-03-12T00:42:39.490Z,1.20
2019-03-12T00:45:10.794Z,1.20
2019-03-12T00:47:39.899Z,1.37
2019-03-12T00:50:10.772Z,1.50
2019-03-12T00:52:39.735Z,1.40
2019-03-12T00:55:09.815Z,1.55
2019-03-12T00:57:38.881Z,1.20
2019-03-12T01:00:18.875Z,1.65
2019-03-12T01:02:48.027Z,1.47
2019-03-12T01:05:17.240Z,1.60
2019-03-12T01:07:46.193Z,1.40
2019-03-12T01:10:16.173Z,1.35
2019-03-12T01:12:45.213Z,1.15
2019-03-12T01:15:15.059Z,1.20
2019-03-12T01:17:44.256Z,1.25
2019-03-12T01:20:14.593Z,1.65
2019-03-12T01:22:43.875Z,1.17
2019-03-12T01:25:13.753Z,1.27
2019-03-12T01:27:42.806Z,1.00
2019-03-12T01:30:16.821Z,1.80
2019-03-12T01:32:46.118Z,1.37
2019-03-12T01:35:15.326Z,1.32
2019-03-12T01:37:44.558Z,1.35
2019-03-12T01:40:14.701Z,1.35
2019-03-12T01:42:43.774Z,1.50
2019-03-12T01:45:14.612Z,1.35
2019-03-12T01:47:43.692Z,1.30
2019-03-12T01:50:14.193Z,1.37
2019-03-12T01:52:43.275Z,1.30
2019-03-12T01:55:14.094Z,1.50
2019-03-12T01:57:43.160Z,1.20
2019-03-12T02:00:17.557Z,1.52
2019-03-12T02:02:46.590Z,1.22
2019-03-12T02:05:15.602Z,1.15
2019-03-12T02:07:45.079Z,1.57
2019-03-12T02:10:14.800Z,1.40
2019-03-12T02:12:43.959Z,1.27
2019-03-12T02:15:14.644Z,1.27
2019-03-12T02:17:43.612Z,1.60
2019-03-12T02:20:17.663Z,1.20
2019-03-12T02:22:46.709Z,1.07
2019-03-12T02:25:19.301Z,1.70
2019-03-12T02:27:48.548Z,1.25
2019-03-12T02:30:21.431Z,1.32
2019-03-12T02:32:50.498Z,1.42
2019-03-12T02:35:19.655Z,1.15
2019-03-12T02:37:48.813Z,2.00
2019-03-12T02:40:17.825Z,1.22
2019-03-12T02:42:46.853Z,1.45
2019-03-12T02:45:16.775Z,1.37
2019-03-12T02:47:45.790Z,1.20
2019-03-12T02:50:15.673Z,1.10
2019-03-12T02:52:44.976Z,1.30
2019-03-12T02:55:14.525Z,1.27
2019-03-12T02:57:43.666Z,1.60
2019-03-12T03:00:26.908Z,1.25
2019-03-12T03:02:56.184Z,1.22
2019-03-12T03:05:25.276Z,1.50
2019-03-12T03:07:55.986Z,1.32
2019-03-12T03:10:25.175Z,1.60
2019-03-12T03:12:54.255Z,1.40
2019-03-12T03:15:45.186Z,2.08
2019-03-12T03:18:14.289Z,1.30
2019-03-12T03:20:43.249Z,1.20
2019-03-12T03:23:12.327Z,1.30
2019-03-12T03:25:41.387Z,1.20
2019-03-12T03:28:10.331Z,1.32
2019-03-12T03:30:39.679Z,1.45
2019-03-12T03:33:08.693Z,1.30
2019-03-12T03:35:37.736Z,1.80
2019-03-12T03:38:06.981Z,1.40
2019-03-12T03:40:36.194Z,1.12
2019-03-12T03:43:05.501Z,1.50
2019-03-12T03:45:34.471Z,1.52
2019-03-12T03:48:03.497Z,1.55
2019-03-12T03:50:32.567Z,1.82
2019-03-12T03:53:01.579Z,1.62
2019-03-12T03:55:30.727Z,1.40
2019-03-12T03:57:59.929Z,1.40
2019-03-12T04:00:29.305Z,1.22
2019-03-12T04:02:58.394Z,1.22
2019-03-12T04:05:27.460Z,1.62
2019-03-12T04:07:56.414Z,1.60
2019-03-12T04:10:25.468Z,1.57
2019-03-12T04:12:54.475Z,1.90
2019-03-12T04:15:23.551Z,1.20
2019-03-12T04:17:52.633Z,1.37
2019-03-12T04:20:21.764Z,1.62
2019-03-12T04:22:50.752Z,1.40
2019-03-12T04:25:19.701Z,1.20
2019-03-12T04:27:48.856Z,1.52
2019-03-12T04:30:19.142Z,1.32
2019-03-12T04:32:48.232Z,1.75
2019-03-12T04:35:31.193Z,1.47
2019-03-12T04:38:00.289Z,1.12
2019-03-12T04:40:29.504Z,1.80
2019-03-12T04:42:58.541Z,1.02
2019-03-12T04:45:27.636Z,2.35
2019-03-12T04:47:56.697Z,1.42
2019-03-12T04:50:25.648Z,2.00
2019-03-12T04:52:54.688Z,1.92
2019-03-12T04:55:23.721Z,1.82
2019-03-12T04:57:52.841Z,1.50
2019-03-12T05:00:22.042Z,1.62
2019-03-12T05:02:51.026Z,1.52
2019-03-12T05:05:20.205Z,1.98
2019-03-12T05:07:49.164Z,1.52
2019-03-12T05:10:18.294Z,2.30
2019-03-12T05:12:47.373Z,2.47
2019-03-12T05:15:19.912Z,2.12
2019-03-12T05:17:48.927Z,1.72
2019-03-12T05:20:18.587Z,1.72
2019-03-12T05:22:47.694Z,1.75
2019-03-12T05:25:16.844Z,1.75
2019-03-12T05:27:46.235Z,1.72
2019-03-12T05:30:17.314Z,1.70
2019-03-12T05:32:46.488Z,1.80
2019-03-12T05:35:15.693Z,1.27
2019-03-12T05:37:45.179Z,1.50
2019-03-12T05:40:15.457Z,1.50
2019-03-12T05:42:44.814Z,1.57
2019-03-12T05:45:15.115Z,1.70
2019-03-12T05:47:44.244Z,2.10
2019-03-12T05:50:15.694Z,1.70
2019-03-12T05:52:44.726Z,1.47
2019-03-12T05:55:15.916Z,1.65
2019-03-12T05:57:44.967Z,1.35
2019-03-12T06:00:19.879Z,1.60
2019-03-12T06:02:49.038Z,2.45
2019-03-12T06:05:18.092Z,1.87
2019-03-12T06:07:47.024Z,1.35
2019-03-12T06:10:16.635Z,1.72
2019-03-12T06:12:45.598Z,1.62
2019-03-12T06:15:15.851Z,1.47
2019-03-12T06:17:44.922Z,1.80
2019-03-12T06:20:15.783Z,1.60
2019-03-12T06:22:44.870Z,1.90
2019-03-12T06:25:14.408Z,1.45
2019-03-12T06:27:43.412Z,1.70
2019-03-12T06:30:18.339Z,1.67
2019-03-12T06:32:49.198Z,1.75
2019-03-12T06:35:20.004Z,1.40
2019-03-12T06:37:56.425Z,2.00
2019-03-12T06:40:29.801Z,1.70
2019-03-12T06:43:03.109Z,1.60
2019-03-12T06:45:33.897Z,1.82
2019-03-12T06:48:10.020Z,1.50
2019-03-12T06:50:46.409Z,1.57
2019-03-12T06:53:23.188Z,1.50
2019-03-12T06:56:11.625Z,1.42
2019-03-12T06:58:48.012Z,1.85
2019-03-12T07:01:18.905Z,2.20
2019-03-12T07:04:04.927Z,1.75
2019-03-12T07:06:38.369Z,1.77
2019-03-12T07:09:27.564Z,1.85
2019-03-12T07:12:03.736Z,2.33
2019-03-12T07:14:43.216Z,1.75
2019-03-12T07:17:13.873Z,2.00
2019-03-12T07:19:47.212Z,2.17
2019-03-12T07:22:20.704Z,1.72
2019-03-12T07:24:51.360Z,1.65
2019-03-12T07:27:34.088Z,1.70
2019-03-12T07:30:09.010Z,1.98
2019-03-12T07:32:57.800Z,1.80
2019-03-12T07:35:40.090Z,1.77
2019-03-12T07:38:23.116Z,2.90
2019-03-12T07:41:02.665Z,2.10
2019-03-12T07:43:38.985Z,1.65
2019-03-12T07:46:18.729Z,2.20
2019-03-12T07:49:04.551Z,2.60
2019-03-12T07:51:35.141Z,2.05
2019-03-12T07:54:21.267Z,2.17
2019-03-12T07:56:51.969Z,2.10
2019-03-12T07:59:22.785Z,2.02
2019-03-12T08:01:53.555Z,2.08
2019-03-12T08:04:33.185Z,2.25
2019-03-12T08:07:13.201Z,2.08
2019-03-12T08:09:52.806Z,2.05
2019-03-12T08:12:34.119Z,2.10
2019-03-12T08:15:22.532Z,1.85
2019-03-12T08:17:51.187Z,2.02
2019-03-12T08:20:21.874Z,2.52
2019-03-12T08:22:55.165Z,2.37
2019-03-12T08:25:26.206Z,1.87
2019-03-12T08:27:56.833Z,1.70
2019-03-12T08:30:36.731Z,1.62
2019-03-12T08:33:23.812Z,1.92
2019-03-12T08:35:54.418Z,1.80
2019-03-12T08:38:25.033Z,1.98
2019-03-12T08:41:12.227Z,2.15
2019-03-12T08:43:52.210Z,2.40
2019-03-12T08:46:23.206Z,1.77
2019-03-12T08:49:10.255Z,1.98
2019-03-12T08:51:40.873Z,1.90
2019-03-12T08:54:26.328Z,3.27
2019-03-12T08:57:13.201Z,2.20
2019-03-12T08:59:49.656Z,2.08
2019-03-12T09:02:23.390Z,1.67
2019-03-12T09:05:00.008Z,2.20
2019-03-12T09:07:39.925Z,2.72
2019-03-12T09:10:17.350Z,1.90
2019-03-12T09:12:53.969Z,1.80
2019-03-12T09:15:27.296Z,1.77
2019-03-12T09:18:14.861Z,1.98
2019-03-12T09:20:51.369Z,1.70
2019-03-12T09:23:24.699Z,2.12
2019-03-12T09:26:11.391Z,1.62
2019-03-12T09:28:53.814Z,1.55
2019-03-12T09:31:27.522Z,1.67
2019-03-12T09:34:00.624Z,2.08
2019-03-12T09:36:39.810Z,1.45
2019-03-12T09:39:10.637Z,1.27
2019-03-12T09:41:41.314Z,2.22
2019-03-12T09:44:20.905Z,2.17
2019-03-12T09:46:57.721Z,1.77
2019-03-12T09:49:34.188Z,2.20
2019-03-12T09:52:04.952Z,2.45
2019-03-12T09:54:47.806Z,1.72
2019-03-12T09:57:21.399Z,1.82
2019-03-12T09:59:57.990Z,1.80
2019-03-12T10:02:28.701Z,1.85
2019-03-12T10:04:59.410Z,1.82
2019-03-12T10:07:32.932Z,2.30
2019-03-12T10:10:20.075Z,2.00
2019-03-12T10:12:50.700Z,1.65
2019-03-12T10:15:21.414Z,1.90
2019-03-12T10:18:08.470Z,1.70
2019-03-12T10:20:41.878Z,1.55
2019-03-12T10:23:21.098Z,2.22
2019-03-12T10:25:54.653Z,2.50
2019-03-12T10:28:34.169Z,1.50
2019-03-12T10:31:04.826Z,1.87
2019-03-12T10:33:38.335Z,2.12
2019-03-12T10:36:11.852Z,2.10
2019-03-12T10:39:21.865Z,2.17
2019-03-12T10:42:10.369Z,2.20
2019-03-12T10:44:41.024Z,2.08
2019-03-12T10:47:17.448Z,1.62
2019-03-12T10:49:46.415Z,2.17
2019-03-12T10:52:15.486Z,1.65
2019-03-12T10:54:44.726Z,1.82
2019-03-12T10:57:13.834Z,1.50
2019-03-12T10:59:43.043Z,1.37
2019-03-12T11:02:12.256Z,1.72
2019-03-12T11:04:41.272Z,1.70
2019-03-12T11:07:16.376Z,1.40
2019-03-12T11:09:41.008Z,1.57
2019-03-12T11:12:10.153Z,1.32
2019-03-12T11:14:39.240Z,1.90
2019-03-12T11:17:08.408Z,1.35
2019-03-12T11:19:37.499Z,1.20
2019-03-12T11:22:06.709Z,1.30
2019-03-12T11:24:35.724Z,1.55
2019-03-12T11:27:04.773Z,1.15
2019-03-12T11:29:33.787Z,1.10
2019-03-12T11:32:03.030Z,1.20
2019-03-12T11:34:32.097Z,1.35
2019-03-12T11:37:01.047Z,1.30
2019-03-12T11:39:30.034Z,1.20
2019-03-12T11:41:59.036Z,0.82
2019-03-12T11:44:28.042Z,1.52
2019-03-12T11:46:57.297Z,1.30
2019-03-12T11:49:26.324Z,1.25
2019-03-12T11:51:55.364Z,1.10
2019-03-12T11:54:24.635Z,1.55
2019-03-12T11:56:53.939Z,1.25
2019-03-12T11:59:23.081Z,1.27
2019-03-12T12:01:52.270Z,1.20
2019-03-12T12:04:21.240Z,1.30
2019-03-12T12:06:50.261Z,1.45
2019-03-12T12:09:19.432Z,1.70
2019-03-12T12:11:48.636Z,1.60
2019-03-12T12:14:17.751Z,1.17
2019-03-12T12:16:46.752Z,0.90
2019-03-12T12:19:15.717Z,1.00
2019-03-12T12:21:44.899Z,1.15
2019-03-12T12:24:13.969Z,1.40
2019-03-12T12:26:42.986Z,1.40
2019-03-12T12:29:12.043Z,1.27
2019-03-12T12:31:41.034Z,0.80
2019-03-12T12:34:10.305Z,1.10
2019-03-12T12:36:39.249Z,1.52
2019-03-12T12:39:08.675Z,1.10
2019-03-12T12:41:37.696Z,1.35
2019-03-12T12:44:06.737Z,1.72
2019-03-12T12:46:35.830Z,1.42
2019-03-12T12:49:04.861Z,1.35
2019-03-12T12:51:33.878Z,1.30
2019-03-12T12:54:02.917Z,1.27
2019-03-12T12:56:31.864Z,1.52
2019-03-12T12:59:00.905Z,1.82
2019-03-12T13:01:29.936Z,1.40
2019-03-12T13:03:58.970Z,1.75
2019-03-12T13:06:28.208Z,1.47
2019-03-12T13:08:57.234Z,1.25
2019-03-12T13:11:26.194Z,1.10
2019-03-12T13:13:55.264Z,1.77
2019-03-12T13:16:25.733Z,1.65
2019-03-12T13:18:55.007Z,1.17
2019-03-12T13:21:24.042Z,1.37
2019-03-12T13:23:53.176Z,1.30
2019-03-12T13:26:22.523Z,0.90
2019-03-12T13:28:51.601Z,1.50
2019-03-12T13:31:20.589Z,1.10
2019-03-12T13:33:49.520Z,1.20
2019-03-12T13:36:18.864Z,1.10
2019-03-12T13:38:48.622Z,1.30
2019-03-12T13:41:18.363Z,1.50
2019-03-12T13:43:47.499Z,2.15
2019-03-12T13:46:16.672Z,1.20
2019-03-12T13:48:45.720Z,1.15
2019-03-12T13:51:15.077Z,1.40
2019-03-12T13:53:44.426Z,1.25
2019-03-12T13:56:13.456Z,0.90
2019-03-12T13:58:42.863Z,1.07
2019-03-12T14:01:11.974Z,1.30
2019-03-12T14:03:41.037Z,1.52
2019-03-12T14:06:10.101Z,1.20
2019-03-12T14:08:39.232Z,1.45
2019-03-12T14:11:08.253Z,1.10
2019-03-12T14:13:37.319Z,1.10
2019-03-12T14:16:06.391Z,1.17
2019-03-12T14:18:35.501Z,1.17
2019-03-12T14:21:07.822Z,1.20
2019-03-12T14:23:44.739Z,1.10
2019-03-12T14:26:14.233Z,1.40
2019-03-12T14:28:43.638Z,1.15
2019-03-12T14:31:12.655Z,1.50
2019-03-12T14:33:41.856Z,1.20
2019-03-12T14:36:10.947Z,1.47
2019-03-12T14:38:40.057Z,1.22
2019-03-12T14:41:09.143Z,0.98
2019-03-12T14:43:38.095Z,1.30
2019-03-12T14:46:07.284Z,1.72
2019-03-12T14:48:50.975Z,1.20
2019-03-12T14:51:31.583Z,1.50
2019-03-12T14:54:08.839Z,1.35
2019-03-12T14:56:38.124Z,1.92
2019-03-12T14:59:07.288Z,1.52
2019-03-12T15:01:36.613Z,1.40
2019-03-12T15:04:06.047Z,1.20
2019-03-12T15:06:35.174Z,1.50
2019-03-12T15:09:07.396Z,1.25
2019-03-12T15:11:36.354Z,1.05
2019-03-12T15:14:05.462Z,1.50
2019-03-12T15:16:34.552Z,1.00
2019-03-12T15:19:03.706Z,1.00
2019-03-12T15:21:33.027Z,1.50
2019-03-12T15:24:02.226Z,1.00
2019-03-12T15:26:31.194Z,1.30
2019-03-12T15:29:00.206Z,1.10
2019-03-12T15:31:29.232Z,1.20
2019-03-12T15:33:58.418Z,1.05
2019-03-12T15:36:27.405Z,0.90
2019-03-12T15:38:56.592Z,1.10
2019-03-12T15:41:25.693Z,1.20
2019-03-12T15:43:54.624Z,1.30
2019-03-12T15:46:23.595Z,1.55
2019-03-12T15:48:52.614Z,1.22
2019-03-12T15:51:21.606Z,1.40
2019-03-12T15:53:50.880Z,1.50
2019-03-12T15:56:20.158Z,1.32
2019-03-12T15:58:49.184Z,1.50
2019-03-12T16:01:18.254Z,1.70
2019-03-12T16:03:47.185Z,1.30
2019-03-12T16:06:16.271Z,1.50
2019-03-12T16:08:45.358Z,1.40
2019-03-12T16:11:14.562Z,0.80
2019-03-12T16:13:43.511Z,1.22
2019-03-12T16:16:12.553Z,1.30
2019-03-12T16:18:41.651Z,1.10
2019-03-12T16:21:10.755Z,1.25
2019-03-12T16:23:39.898Z,1.25
2019-03-12T16:26:08.872Z,1.12
2019-03-12T16:28:38.048Z,1.17
2019-03-12T16:31:07.058Z,1.47
2019-03-12T16:33:36.507Z,2.15
2019-03-12T16:36:05.509Z,1.70
2019-03-12T16:38:34.550Z,1.42
2019-03-12T16:41:03.592Z,1.12
2019-03-12T16:43:32.849Z,1.67
2019-03-12T16:46:01.869Z,1.30
2019-03-12T16:48:30.968Z,1.10
2019-03-12T16:50:59.971Z,1.37
2019-03-12T16:53:28.942Z,1.00
2019-03-12T16:55:57.973Z,1.62
2019-03-12T16:58:27.084Z,1.65
2019-03-12T17:00:56.118Z,1.27
2019-03-12T17:03:25.153Z,1.65
2019-03-12T17:05:54.115Z,1.52
2019-03-12T17:08:23.146Z,1.27
2019-03-12T17:11:00.861Z,1.27
2019-03-12T17:13:23.041Z,1.30
2019-03-12T17:15:54.970Z,1.92
2019-03-12T17:18:22.922Z,1.90
2019-03-12T17:20:51.954Z,1.50
2019-03-12T17:23:21.029Z,1.52
2019-03-12T17:26:03.318Z,1.60
2019-03-12T17:28:32.271Z,1.40
2019-03-12T17:31:01.320Z,1.25
2019-03-12T17:33:30.731Z,1.65
2019-03-12T17:35:59.847Z,1.45
2019-03-12T17:38:41.549Z,1.47
2019-03-12T17:40:59.600Z,1.70
2019-03-12T17:43:28.679Z,2.22
2019-03-12T17:46:17.002Z,2.10
2019-03-12T17:48:46.133Z,2.87
2019-03-12T17:51:15.302Z,3.62
2019-03-12T17:53:44.270Z,3.33
2019-03-12T17:56:13.233Z,3.65
2019-03-12T17:58:42.362Z,3.77
2019-03-12T18:01:11.434Z,3.52
2019-03-12T18:03:40.729Z,3.15
2019-03-12T18:06:09.773Z,2.87
2019-03-12T18:08:38.725Z,3.10
2019-03-12T18:11:07.769Z,3.50
2019-03-12T18:13:36.747Z,3.60
2019-03-12T18:16:05.912Z,3.42
2019-03-12T18:18:34.908Z,3.12
2019-03-12T18:21:04.115Z,3.50
2019-03-12T18:23:33.129Z,3.67
2019-03-12T18:26:03.597Z,3.50
2019-03-12T18:28:32.582Z,3.90
2019-03-12T18:31:01.710Z,3.92
2019-03-12T18:33:30.719Z,3.70
2019-03-12T18:35:59.940Z,3.87
2019-03-12T18:38:29.159Z,3.92
2019-03-12T18:40:58.164Z,3.90
2019-03-12T18:43:27.203Z,3.33
2019-03-12T18:45:56.347Z,3.58
2019-03-12T18:48:25.361Z,4.22
2019-03-12T18:50:54.471Z,4.35
2019-03-12T18:53:23.489Z,3.85
2019-03-12T18:55:58.721Z,3.67
2019-03-12T18:58:27.857Z,3.50
2019-03-12T19:00:58.551Z,2.90
2019-03-12T19:03:27.661Z,3.25
2019-03-12T19:05:56.762Z,2.90
2019-03-12T19:08:25.871Z,2.87
2019-03-12T19:10:54.904Z,3.12
2019-03-12T19:13:23.938Z,2.80
2019-03-12T19:15:53.272Z,2.87
2019-03-12T19:18:22.398Z,3.10
2019-03-12T19:20:51.405Z,3.08
2019-03-12T19:23:20.692Z,2.80
2019-03-12T19:25:49.957Z,3.20
2019-03-12T19:28:19.048Z,3.40
2019-03-12T19:30:48.859Z,3.47
2019-03-12T19:33:19.510Z,3.30
2019-03-12T19:35:48.660Z,4.20
2019-03-12T19:38:17.827Z,4.80
2019-03-12T19:40:52.659Z,4.10
2019-03-12T19:43:21.804Z,4.70
2019-03-12T19:45:50.903Z,4.80
2019-03-12T19:48:20.130Z,5.12
2019-03-12T19:50:49.236Z,5.20
2019-03-12T19:53:18.245Z,4.25
2019-03-12T19:55:50.255Z,4.85
2019-03-12T19:58:19.313Z,5.15
2019-03-12T20:00:49.134Z,5.60
2019-03-12T20:03:18.299Z,4.55
2019-03-12T20:05:47.422Z,4.92
2019-03-12T20:08:16.939Z,4.22
2019-03-12T20:11:00.841Z,3.92
2019-03-12T20:14:03.676Z,4.05
2019-03-12T20:17:09.001Z,4.20
2019-03-12T20:19:53.982Z,4.05
2019-03-12T20:22:34.663Z,3.75
2019-03-12T20:25:23.644Z,4.03
2019-03-12T20:28:19.636Z,4.60
2019-03-12T20:31:26.982Z,3.72
2019-03-12T20:34:21.741Z,4.47
2019-03-12T20:37:29.088Z,4.10
2019-03-12T20:40:17.842Z,3.40
2019-03-12T20:43:21.843Z,3.70
2019-03-12T20:46:13.424Z,3.25
2019-03-12T20:48:51.563Z,3.35
2019-03-12T20:51:49.539Z,3.90
2019-03-12T20:54:47.715Z,4.35
2019-03-12T20:57:42.280Z,3.80
2019-03-12T21:00:23.288Z,3.42
2019-03-12T21:03:01.204Z,4.03
2019-03-12T21:06:06.949Z,3.98
2019-03-12T21:08:42.320Z,3.87
2019-03-12T21:11:35.292Z,4.47
2019-03-12T21:14:33.354Z,3.80
2019-03-12T21:17:28.246Z,2.30
2019-03-12T21:20:15.403Z,1.32
2019-03-12T21:23:15.596Z,1.32
2019-03-12T21:25:56.606Z,1.30
2019-03-12T21:28:49.278Z,1.42
2019-03-12T21:31:18.859Z,1.40
2019-03-12T21:33:48.133Z,1.00
2019-03-12T21:36:18.850Z,1.25
2019-03-12T21:38:48.093Z,1.40
2019-03-12T21:41:17.194Z,1.75
2019-03-12T21:43:46.255Z,1.60
2019-03-12T21:46:15.446Z,1.50
2019-03-12T21:48:44.482Z,1.50
2019-03-12T21:51:15.333Z,1.67
2019-03-12T21:53:44.504Z,1.57
2019-03-12T21:56:13.531Z,1.40
2019-03-12T21:58:42.802Z,1.50
2019-03-12T22:01:12.122Z,1.50
2019-03-12T22:03:41.129Z,1.30
2019-03-12T22:06:10.217Z,1.70
2019-03-12T22:08:39.241Z,1.65
2019-03-12T22:11:08.326Z,1.27
2019-03-12T22:13:37.467Z,1.30
2019-03-12T22:16:06.476Z,1.30
2019-03-12T22:18:35.725Z,1.50
2019-03-12T22:21:05.204Z,1.40
2019-03-12T22:23:48.172Z,1.20
2019-03-12T22:26:17.309Z,1.30
2019-03-12T22:28:46.409Z,1.25
2019-03-12T22:31:15.643Z,1.35
2019-03-12T22:33:44.873Z,1.25
2019-03-12T22:36:13.959Z,1.40
2019-03-12T22:38:43.109Z,1.40
2019-03-12T22:41:12.805Z,1.20
2019-03-12T22:43:42.040Z,1.22
2019-03-12T22:46:11.256Z,1.72
2019-03-12T22:48:40.467Z,1.40
2019-03-12T22:51:09.510Z,1.20
2019-03-12T22:53:38.911Z,1.60
2019-03-12T22:56:08.037Z,1.35
2019-03-12T22:58:37.153Z,1.70
2019-03-12T23:01:06.300Z,1.20
2019-03-12T23:03:35.421Z,1.30
2019-03-12T23:06:04.685Z,1.37
2019-03-12T23:08:34.354Z,1.55
2019-03-12T23:11:03.954Z,1.42
2019-03-12T23:13:33.257Z,1.62
2019-03-12T23:16:02.688Z,1.30
2019-03-12T23:18:32.432Z,1.60
2019-03-12T23:21:01.635Z,1.30
2019-03-12T23:23:30.907Z,1.47
2019-03-12T23:26:00.158Z,1.20
2019-03-12T23:28:29.284Z,1.47
2019-03-12T23:30:58.620Z,1.67
2019-03-12T23:33:27.804Z,1.50
2019-03-12T23:35:57.055Z,1.37
2019-03-12T23:38:26.241Z,1.35
2019-03-12T23:40:55.475Z,1.47
2019-03-12T23:43:25.136Z,1.90
2019-03-12T23:45:54.338Z,1.40
2019-03-12T23:48:23.486Z,1.57
2019-03-12T23:50:53.076Z,1.47
2019-03-12T23:53:22.645Z,1.20
2019-03-12T23:55:51.896Z,1.55
2019-03-12T23:58:22.107Z,1.42
